createdAt,value
2019-05-21T00:00:39.089Z,89.80
2019-05-21T00:03:06.516Z,91.07
2019-05-21T00:05:33.943Z,88.95
2019-05-21T00:08:01.370Z,88.37
2019-05-21T00:10:28.757Z,89.34
2019-05-21T00:12:56.346Z,89.03
2019-05-21T00:15:23.762Z,89.47
2019-05-21T00:17:51.184Z,89.46
2019-05-21T00:20:19.398Z,90.19
2019-05-21T00:22:46.875Z,91.50
2019-05-21T00:25:17.134Z,92.25
2019-05-21T00:27:43.698Z,91.88
2019-05-21T00:30:47.678Z,92.80
2019-05-21T00:33:51.592Z,93.47
2019-05-21T00:37:00.614Z,95.40
2019-05-21T00:40:04.718Z,97.50
2019-05-21T00:42:35.663Z,99.27
2019-05-21T00:45:06.900Z,98.28
2019-05-21T00:47:34.796Z,96.21
2019-05-21T00:50:02.551Z,96.80
2019-05-21T00:52:30.063Z,97.54
2019-05-21T00:54:57.539Z,96.06
2019-05-21T00:57:24.942Z,95.89
2019-05-21T00:59:52.373Z,95.74
2019-05-21T01:02:19.804Z,97.09
2019-05-21T01:04:59.482Z,97.72
2019-05-21T01:07:16.722Z,98.68
2019-05-21T01:09:44.144Z,99.61
2019-05-21T01:12:11.515Z,99.09
2019-05-21T01:14:38.929Z,98.95
2019-05-21T01:17:06.377Z,99.42
2019-05-21T01:19:33.751Z,97.00
2019-05-21T01:22:01.175Z,96.64
2019-05-21T01:24:28.625Z,96.26
2019-05-21T01:26:56.039Z,94.55
2019-05-21T01:29:23.519Z,95.30
2019-05-21T01:31:50.955Z,96.73
2019-05-21T01:34:18.564Z,96.66
2019-05-21T01:36:46.062Z,96.71
2019-05-21T01:39:13.553Z,97.05
2019-05-21T01:41:40.972Z,98.26
2019-05-21T01:44:08.452Z,99.24
2019-05-21T01:46:35.933Z,100.00
2019-05-21T01:49:03.622Z,98.83
2019-05-21T01:51:31.206Z,97.63
2019-05-21T01:53:58.705Z,98.21
2019-05-21T01:56:26.093Z,99.32
2019-05-21T01:58:53.540Z,100.00
2019-05-21T02:01:20.979Z,99.38
2019-05-21T02:03:48.393Z,98.58
2019-05-21T02:06:15.828Z,80.03
2019-05-21T02:08:43.314Z,89.47
2019-05-21T02:11:10.737Z,89.33
2019-05-21T02:13:38.123Z,90.42
2019-05-21T02:16:05.583Z,85.80
2019-05-21T02:18:33.051Z,88.50
2019-05-21T02:21:00.411Z,88.70
2019-05-21T02:23:27.864Z,90.80
2019-05-21T02:25:55.351Z,90.99
2019-05-21T02:28:22.895Z,91.31
2019-05-21T02:30:50.274Z,94.45
2019-05-21T02:33:17.676Z,96.65
2019-05-21T02:35:54.305Z,97.22
2019-05-21T02:38:14.545Z,98.02
2019-05-21T02:40:41.996Z,96.05
2019-05-21T02:43:09.896Z,97.21
2019-05-21T02:45:37.348Z,98.40
2019-05-21T02:48:05.366Z,98.99
2019-05-21T02:50:32.780Z,98.08
2019-05-21T02:53:00.201Z,96.10
2019-05-21T02:55:27.610Z,95.08
2019-05-21T02:57:55.063Z,94.62
2019-05-21T03:00:31.808Z,93.45
2019-05-21T03:02:59.487Z,90.50
2019-05-21T03:05:26.959Z,90.30
2019-05-21T03:07:54.347Z,89.65
2019-05-21T03:10:21.842Z,90.68
2019-05-21T03:12:50.092Z,91.71
2019-05-21T03:15:17.568Z,91.58
2019-05-21T03:17:45.149Z,90.69
2019-05-21T03:20:13.070Z,90.38
2019-05-21T03:22:40.459Z,90.56
2019-05-21T03:25:08.213Z,91.33
2019-05-21T03:27:35.641Z,91.47
2019-05-21T03:30:03.572Z,90.30
2019-05-21T03:32:30.965Z,90.68
2019-05-21T03:34:58.421Z,91.88
2019-05-21T03:37:25.859Z,92.50
2019-05-21T03:39:53.341Z,92.91
2019-05-21T03:42:20.839Z,91.37
2019-05-21T03:44:59.116Z,92.35
2019-05-21T03:47:17.638Z,92.77
2019-05-21T03:49:45.364Z,92.95
2019-05-21T03:52:12.816Z,90.12
2019-05-21T03:54:40.253Z,88.48
2019-05-21T03:57:07.701Z,89.02
2019-05-21T03:59:35.081Z,87.71
2019-05-21T04:02:02.614Z,87.00
2019-05-21T04:04:30.086Z,86.60
2019-05-21T04:06:57.491Z,86.55
2019-05-21T04:09:25.064Z,86.82
2019-05-21T04:11:53.383Z,87.00
2019-05-21T04:14:33.048Z,86.67
2019-05-21T04:17:20.239Z,85.37
2019-05-21T04:19:48.189Z,84.49
2019-05-21T04:22:16.229Z,82.94
2019-05-21T04:24:43.794Z,81.95
2019-05-21T04:27:11.450Z,83.06
2019-05-21T04:29:38.880Z,81.32
2019-05-21T04:32:06.399Z,80.74
2019-05-21T04:34:33.870Z,78.50
2019-05-21T04:37:10.920Z,76.31
2019-05-21T04:39:30.674Z,75.07
2019-05-21T04:41:58.295Z,73.94
2019-05-21T04:44:25.649Z,72.78
2019-05-21T04:46:53.102Z,73.10
2019-05-21T04:49:20.528Z,71.52
2019-05-21T04:51:48.011Z,69.51
2019-05-21T04:54:15.462Z,67.12
2019-05-21T04:56:43.001Z,65.86
2019-05-21T04:59:10.432Z,66.25
2019-05-21T05:01:37.818Z,64.88
2019-05-21T05:04:05.390Z,63.75
2019-05-21T05:06:32.858Z,63.08
2019-05-21T05:09:00.355Z,63.39
2019-05-21T05:11:27.743Z,63.00
2019-05-21T05:13:55.204Z,62.04
2019-05-21T05:16:22.669Z,60.91
2019-05-21T05:18:50.058Z,58.92
2019-05-21T05:21:17.502Z,59.22
2019-05-21T05:23:44.926Z,58.17
2019-05-21T05:26:12.510Z,58.30
2019-05-21T05:28:39.964Z,56.89
2019-05-21T05:31:07.399Z,57.79
2019-05-21T05:33:34.880Z,58.72
2019-05-21T05:36:02.352Z,59.03
2019-05-21T05:38:29.762Z,61.66
2019-05-21T05:40:57.223Z,59.70
2019-05-21T05:43:24.820Z,59.62
2019-05-21T05:45:52.296Z,57.67
2019-05-21T05:48:20.946Z,57.20
2019-05-21T05:50:50.392Z,58.15
2019-05-21T05:53:17.824Z,59.21
2019-05-21T05:55:45.339Z,59.80
2019-05-21T05:58:12.786Z,60.92
2019-05-21T06:00:40.217Z,60.83
2019-05-21T06:03:07.665Z,60.81
2019-05-21T06:05:35.196Z,61.41
2019-05-21T06:08:02.672Z,61.98
2019-05-21T06:10:30.051Z,61.28
2019-05-21T06:12:57.506Z,60.75
2019-05-21T06:15:24.948Z,59.49
2019-05-21T06:17:52.322Z,59.97
2019-05-21T06:20:20.114Z,58.81
2019-05-21T06:22:47.554Z,56.91
2019-05-21T06:25:17.001Z,56.76
2019-05-21T06:27:44.434Z,56.69
2019-05-21T06:30:12.367Z,54.78
2019-05-21T06:32:39.820Z,55.13
2019-05-21T06:35:07.394Z,52.76
2019-05-21T06:37:34.794Z,52.65
2019-05-21T06:40:02.633Z,53.45
2019-05-21T06:42:30.103Z,50.80
2019-05-21T06:44:57.615Z,50.10
2019-05-21T06:47:25.077Z,51.19
2019-05-21T06:49:52.526Z,50.49
2019-05-21T06:52:20.661Z,50.06
2019-05-21T06:54:48.157Z,51.01
2019-05-21T06:57:15.675Z,50.14
2019-05-21T06:59:43.061Z,51.05
2019-05-21T07:02:10.641Z,50.19
2019-05-21T07:04:38.156Z,51.17
2019-05-21T07:07:05.655Z,49.13
2019-05-21T07:09:33.126Z,50.11
2019-05-21T07:12:00.600Z,50.28
2019-05-21T07:14:27.988Z,51.90
2019-05-21T07:16:55.404Z,51.74
2019-05-21T07:19:22.894Z,50.46
2019-05-21T07:21:50.473Z,51.91
2019-05-21T07:24:17.947Z,51.48
2019-05-21T07:26:45.744Z,51.38
2019-05-21T07:29:13.279Z,47.98
2019-05-21T07:31:40.699Z,47.33
2019-05-21T07:34:08.170Z,48.16
2019-05-21T07:36:35.638Z,46.84
2019-05-21T07:39:05.292Z,46.40
2019-05-21T07:41:32.631Z,45.01
2019-05-21T07:44:00.137Z,46.22
2019-05-21T07:46:27.746Z,47.67
2019-05-21T07:48:55.206Z,45.31
2019-05-21T07:51:22.777Z,45.82
2019-05-21T07:53:50.223Z,45.03
2019-05-21T07:56:17.588Z,44.82
2019-05-21T07:58:45.020Z,44.01
2019-05-21T08:01:12.463Z,42.41
2019-05-21T08:03:39.876Z,41.11
2019-05-21T08:06:07.336Z,42.10
2019-05-21T08:08:34.771Z,42.63
2019-05-21T08:11:02.139Z,42.09
2019-05-21T08:13:29.568Z,41.58
2019-05-21T08:15:57.001Z,40.49
2019-05-21T08:18:24.429Z,39.65
2019-05-21T08:20:51.879Z,39.22
2019-05-21T08:23:19.349Z,39.76
2019-05-21T08:25:47.670Z,38.70
2019-05-21T08:28:15.107Z,37.70
2019-05-21T08:30:42.543Z,37.03
2019-05-21T08:33:10.007Z,36.48
2019-05-21T08:35:37.477Z,38.35
2019-05-21T08:38:06.703Z,38.29
2019-05-21T08:40:34.437Z,39.64
2019-05-21T08:43:01.913Z,39.88
2019-05-21T08:45:29.383Z,39.70
2019-05-21T08:47:57.100Z,40.54
2019-05-21T08:50:24.566Z,39.73
2019-05-21T08:52:52.128Z,39.54
2019-05-21T08:55:19.636Z,39.99
2019-05-21T08:58:05.062Z,41.05
2019-05-21T09:00:20.487Z,40.94
2019-05-21T09:02:47.974Z,40.98
2019-05-21T09:05:15.659Z,41.18
2019-05-21T09:07:43.384Z,41.10
2019-05-21T09:10:12.737Z,40.97
2019-05-21T09:12:40.161Z,40.49
2019-05-21T09:15:09.486Z,39.85
2019-05-21T09:17:36.945Z,40.11
2019-05-21T09:20:05.343Z,39.03
2019-05-21T09:22:32.910Z,40.17
2019-05-21T09:25:00.418Z,40.26
2019-05-21T09:27:27.804Z,41.35
2019-05-21T09:29:55.241Z,41.32
2019-05-21T09:32:22.724Z,39.66
2019-05-21T09:34:50.132Z,39.04
2019-05-21T09:37:19.998Z,37.01
2019-05-21T09:39:47.160Z,39.41
2019-05-21T09:42:14.567Z,38.23
2019-05-21T09:44:42.304Z,38.08
2019-05-21T09:47:09.887Z,37.37
2019-05-21T09:49:37.554Z,35.00
2019-05-21T09:52:05.078Z,36.23
2019-05-21T09:54:32.535Z,35.60
2019-05-21T09:57:00.778Z,36.17
2019-05-21T09:59:42.689Z,36.28
2019-05-21T10:02:13.832Z,35.65
2019-05-21T10:04:41.292Z,35.49
2019-05-21T10:07:11.137Z,36.33
2019-05-21T10:09:38.595Z,36.09
2019-05-21T10:12:06.595Z,34.99
2019-05-21T10:14:34.554Z,33.74
2019-05-21T10:17:02.033Z,30.17
2019-05-21T10:19:29.497Z,28.96
2019-05-21T10:21:57.241Z,28.57
2019-05-21T10:24:24.743Z,29.62
2019-05-21T10:26:52.244Z,28.16
2019-05-21T10:29:19.714Z,27.16
2019-05-21T10:31:47.204Z,26.56
2019-05-21T10:34:14.733Z,25.25
2019-05-21T10:36:42.191Z,26.23
2019-05-21T10:39:10.175Z,27.02
2019-05-21T10:41:37.715Z,26.18
2019-05-21T10:44:05.302Z,25.81
2019-05-21T10:46:32.835Z,24.73
2019-05-21T10:49:00.338Z,24.27
2019-05-21T10:51:28.658Z,24.70
2019-05-21T10:53:56.350Z,23.87
2019-05-21T10:56:23.744Z,23.87
2019-05-21T10:58:51.300Z,24.03
2019-05-21T11:01:28.433Z,23.75
2019-05-21T11:04:13.884Z,23.55
2019-05-21T11:06:42.442Z,24.31
2019-05-21T11:09:15.855Z,23.91
2019-05-21T11:11:43.445Z,22.53
2019-05-21T11:14:10.973Z,22.53
2019-05-21T11:16:38.579Z,22.51
2019-05-21T11:19:06.138Z,22.44
2019-05-21T11:21:33.593Z,23.01
2019-05-21T11:24:01.140Z,22.99
2019-05-21T11:26:28.654Z,23.94
2019-05-21T11:28:56.085Z,23.94
2019-05-21T11:31:23.619Z,23.70
2019-05-21T11:33:51.096Z,23.98
2019-05-21T11:36:18.571Z,24.31
2019-05-21T11:38:46.013Z,24.68
2019-05-21T11:41:13.555Z,24.86
2019-05-21T11:43:40.995Z,25.37
2019-05-21T11:46:08.550Z,25.98
2019-05-21T11:48:36.003Z,26.02
2019-05-21T11:51:03.537Z,31.24
2019-05-21T11:53:32.138Z,34.18
2019-05-21T11:55:59.866Z,35.11
2019-05-21T11:58:27.347Z,36.38
2019-05-21T12:03:22.177Z,38.86
2019-05-21T12:05:49.737Z,39.03
2019-05-21T12:08:17.132Z,38.61
2019-05-21T12:10:44.638Z,40.03
2019-05-21T12:13:12.088Z,41.38
2019-05-21T12:15:39.578Z,40.97
2019-05-21T12:18:07.087Z,41.53
2019-05-21T12:20:37.190Z,42.47
2019-05-21T12:23:03.929Z,43.11
2019-05-21T12:25:31.416Z,42.89
2019-05-21T12:27:58.820Z,42.59
2019-05-21T12:30:26.334Z,43.09
2019-05-21T12:32:53.804Z,44.08
2019-05-21T12:35:21.319Z,44.08
2019-05-21T12:37:48.759Z,44.67
2019-05-21T12:40:16.969Z,44.76
2019-05-21T12:42:44.403Z,45.01
2019-05-21T12:45:12.447Z,46.13
2019-05-21T12:47:39.901Z,44.87
2019-05-21T12:50:07.844Z,45.10
2019-05-21T12:52:35.410Z,43.16
2019-05-21T12:55:03.475Z,43.63
2019-05-21T12:57:30.926Z,43.61
2019-05-21T12:59:58.447Z,42.59
2019-05-21T13:02:25.822Z,41.66
2019-05-21T13:04:53.286Z,41.85
2019-05-21T13:07:20.844Z,39.33
2019-05-21T13:09:48.276Z,40.14
2019-05-21T13:12:15.761Z,39.89
2019-05-21T13:14:43.232Z,39.27
2019-05-21T13:17:10.856Z,38.66
2019-05-21T13:19:38.471Z,38.21
2019-05-21T13:22:05.910Z,38.56
2019-05-21T13:24:33.440Z,37.99
2019-05-21T13:27:00.867Z,38.08
2019-05-21T13:29:28.281Z,38.90
2019-05-21T13:31:55.717Z,39.64
2019-05-21T13:34:23.169Z,41.75
2019-05-21T13:36:50.604Z,42.87
2019-05-21T13:39:18.148Z,43.18
2019-05-21T13:41:45.610Z,43.55
2019-05-21T13:44:13.029Z,43.37
2019-05-21T13:46:40.482Z,43.14
2019-05-21T13:49:08.034Z,43.65
2019-05-21T13:51:36.032Z,44.32
2019-05-21T13:54:03.875Z,44.31
2019-05-21T13:56:31.520Z,43.37
2019-05-21T13:58:58.955Z,43.94
2019-05-21T14:01:39.924Z,44.05
2019-05-21T14:03:56.120Z,43.33
2019-05-21T14:06:23.810Z,43.73
2019-05-21T14:08:51.219Z,44.05
2019-05-21T14:11:20.169Z,43.62
2019-05-21T14:13:47.704Z,43.83
2019-05-21T14:16:15.244Z,43.40
2019-05-21T14:18:42.692Z,41.53
2019-05-21T14:21:10.139Z,39.51
2019-05-21T14:23:37.676Z,39.67
2019-05-21T14:26:05.396Z,39.54
2019-05-21T14:28:34.613Z,39.05
2019-05-21T14:31:02.483Z,36.72
2019-05-21T14:33:29.921Z,35.79
2019-05-21T14:35:57.451Z,35.91
2019-05-21T14:38:24.930Z,37.02
2019-05-21T14:40:52.403Z,35.89
2019-05-21T14:43:19.782Z,35.98
2019-05-21T14:45:47.236Z,35.54
2019-05-21T14:48:14.702Z,36.14
2019-05-21T14:50:42.234Z,35.71
2019-05-21T14:53:09.749Z,38.95
2019-05-21T14:55:37.292Z,39.54
2019-05-21T14:58:04.976Z,41.23
2019-05-21T15:00:35.584Z,42.51
2019-05-21T15:03:03.106Z,43.03
2019-05-21T15:05:30.769Z,45.40
2019-05-21T15:07:58.195Z,45.88
2019-05-21T15:10:25.661Z,45.92
2019-05-21T15:12:53.178Z,46.76
2019-05-21T15:15:20.742Z,47.37
2019-05-21T15:17:49.229Z,45.86
2019-05-21T15:20:25.177Z,45.78
2019-05-21T15:22:52.710Z,45.65
2019-05-21T15:25:20.180Z,45.55
2019-05-21T15:27:47.732Z,47.05
2019-05-21T15:30:15.320Z,46.94
2019-05-21T15:32:42.687Z,45.53
2019-05-21T15:35:10.397Z,44.41
2019-05-21T15:37:37.909Z,43.76
2019-05-21T15:40:05.630Z,44.33
2019-05-21T15:42:33.105Z,44.02
2019-05-21T15:45:00.553Z,43.75
2019-05-21T15:47:28.109Z,42.52
2019-05-21T15:49:55.582Z,42.50
2019-05-21T15:52:23.047Z,40.79
2019-05-21T15:54:50.693Z,41.18
2019-05-21T15:57:18.197Z,40.98
2019-05-21T15:59:45.818Z,40.65
2019-05-21T16:02:13.421Z,43.76
2019-05-21T16:04:40.919Z,43.72
2019-05-21T16:07:08.413Z,41.22
2019-05-21T16:09:36.087Z,41.13
2019-05-21T16:12:03.680Z,41.45
2019-05-21T16:14:31.109Z,40.82
2019-05-21T16:16:58.659Z,41.55
2019-05-21T16:19:26.072Z,41.37
2019-05-21T16:21:53.601Z,41.19
2019-05-21T16:24:21.060Z,40.22
2019-05-21T16:26:48.567Z,39.48
2019-05-21T16:29:16.178Z,39.33
2019-05-21T16:31:43.676Z,39.70
2019-05-21T16:34:11.161Z,38.78
2019-05-21T16:36:38.646Z,38.45
2019-05-21T16:39:07.421Z,38.24
2019-05-21T16:41:44.290Z,38.27
2019-05-21T16:44:04.609Z,38.29
2019-05-21T16:46:32.130Z,38.50
2019-05-21T16:48:59.525Z,38.74
2019-05-21T16:51:26.973Z,39.01
2019-05-21T16:53:56.044Z,39.10
2019-05-21T16:56:24.074Z,38.70
2019-05-21T16:58:51.589Z,39.28
2019-05-21T17:01:19.059Z,38.84
2019-05-21T17:03:59.138Z,38.65
2019-05-21T17:06:16.035Z,39.37
2019-05-21T17:08:43.600Z,39.40
2019-05-21T17:11:11.077Z,39.25
2019-05-21T17:13:38.535Z,39.58
2019-05-21T17:16:05.952Z,39.61
2019-05-21T17:18:33.439Z,39.57
2019-05-21T17:21:00.880Z,39.55
2019-05-21T17:23:28.329Z,39.21
2019-05-21T17:25:55.751Z,39.62
2019-05-21T17:28:23.277Z,39.58
2019-05-21T17:30:50.811Z,39.59
2019-05-21T17:33:18.239Z,39.61
2019-05-21T17:35:45.818Z,39.49
2019-05-21T17:38:13.292Z,39.80
2019-05-21T17:40:40.879Z,40.49
2019-05-21T17:43:08.371Z,40.44
2019-05-21T17:45:35.942Z,40.63
2019-05-21T17:48:03.548Z,40.53
2019-05-21T17:50:31.068Z,40.85
2019-05-21T17:52:58.522Z,40.93
2019-05-21T17:55:28.077Z,40.96
2019-05-21T17:57:55.913Z,41.52
2019-05-21T18:00:42.149Z,41.60
2019-05-21T18:03:09.922Z,41.56
2019-05-21T18:05:37.995Z,41.84
2019-05-21T18:08:05.549Z,42.22
2019-05-21T18:10:33.023Z,42.69
2019-05-21T18:13:00.796Z,42.92
2019-05-21T18:15:28.187Z,43.40
2019-05-21T18:17:56.528Z,43.37
2019-05-21T18:20:24.539Z,43.23
2019-05-21T18:22:51.957Z,43.68
2019-05-21T18:25:19.673Z,44.19
2019-05-21T18:27:47.715Z,44.22
2019-05-21T18:30:15.396Z,44.61
2019-05-21T18:32:43.435Z,45.02
2019-05-21T18:35:12.444Z,45.05
2019-05-21T18:37:40.145Z,45.49
2019-05-21T18:40:08.522Z,45.63
2019-05-21T18:42:36.029Z,45.57
2019-05-21T18:45:04.331Z,46.30
2019-05-21T18:47:31.771Z,46.51
2019-05-21T18:49:59.205Z,46.81
2019-05-21T18:52:26.657Z,47.23
2019-05-21T18:54:54.157Z,47.41
2019-05-21T18:57:21.913Z,47.37
2019-05-21T18:59:49.506Z,46.78
2019-05-21T19:02:17.150Z,46.90
2019-05-21T19:04:44.566Z,46.77
2019-05-21T19:07:12.561Z,47.06
2019-05-21T19:09:40.035Z,47.85
2019-05-21T19:12:07.400Z,47.14
2019-05-21T19:14:35.048Z,47.43
2019-05-21T19:17:02.545Z,47.18
2019-05-21T19:19:29.971Z,46.27
2019-05-21T19:21:57.446Z,46.96
2019-05-21T19:24:24.924Z,47.58
2019-05-21T19:26:52.472Z,47.69
2019-05-21T19:29:19.985Z,47.14
2019-05-21T19:31:49.386Z,47.08
2019-05-21T19:34:16.979Z,47.24
2019-05-21T19:36:44.463Z,46.97
2019-05-21T19:39:11.985Z,46.79
2019-05-21T19:41:39.401Z,46.51
2019-05-21T19:44:06.817Z,46.26
2019-05-21T19:46:34.386Z,46.07
2019-05-21T19:49:01.859Z,46.14
2019-05-21T19:51:29.288Z,46.45
2019-05-21T19:53:56.845Z,46.30
2019-05-21T19:56:25.064Z,46.50
2019-05-21T19:58:52.560Z,47.05
2019-05-21T20:01:20.341Z,46.86
2019-05-21T20:03:48.507Z,47.02
2019-05-21T20:06:17.924Z,47.83
2019-05-21T20:08:45.423Z,48.14
2019-05-21T20:11:14.777Z,47.94
2019-05-21T20:13:42.387Z,47.23
2019-05-21T20:16:10.915Z,48.12
2019-05-21T20:18:39.974Z,48.03
2019-05-21T20:21:08.842Z,47.74
2019-05-21T20:23:36.855Z,47.22
2019-05-21T20:26:10.051Z,47.27
2019-05-21T20:28:38.268Z,47.39
2019-05-21T20:31:06.269Z,47.00
2019-05-21T20:33:35.568Z,47.65
2019-05-21T20:36:03.659Z,47.43
2019-05-21T20:38:31.174Z,46.77
2019-05-21T20:40:58.957Z,47.45
2019-05-21T20:43:26.489Z,48.51
2019-05-21T20:45:54.323Z,51.24
2019-05-21T20:48:25.616Z,52.82
2019-05-21T20:50:53.315Z,53.74
2019-05-21T20:53:21.272Z,53.98
2019-05-21T20:55:49.170Z,54.37
2019-05-21T20:58:17.055Z,54.31
2019-05-21T21:00:49.189Z,54.74
2019-05-21T21:03:17.128Z,55.27
2019-05-21T21:05:44.817Z,55.29
2019-05-21T21:08:13.237Z,55.59
2019-05-21T21:10:40.831Z,55.75
2019-05-21T21:13:10.943Z,55.39
2019-05-21T21:15:38.411Z,55.49
2019-05-21T21:18:05.977Z,55.99
2019-05-21T21:20:33.603Z,55.91
2019-05-21T21:23:01.179Z,56.54
2019-05-21T21:25:29.473Z,56.69
2019-05-21T21:27:57.044Z,56.35
2019-05-21T21:30:24.900Z,56.08
2019-05-21T21:32:52.974Z,55.79
2019-05-21T21:35:20.519Z,55.95
2019-05-21T21:37:48.520Z,55.00
2019-05-21T21:40:18.037Z,55.65
2019-05-21T21:42:45.571Z,56.74
2019-05-21T21:45:13.763Z,56.88
2019-05-21T21:47:41.411Z,57.12
2019-05-21T21:50:10.073Z,57.37
2019-05-21T21:52:37.560Z,58.37
2019-05-21T21:55:06.478Z,58.96
2019-05-21T21:57:34.370Z,59.18
2019-05-21T22:00:07.714Z,60.22
2019-05-21T22:02:35.624Z,61.44
2019-05-21T22:05:06.027Z,61.12
2019-05-21T22:07:34.097Z,60.73
2019-05-21T22:10:01.667Z,60.42
2019-05-21T22:12:29.149Z,60.78
2019-05-21T22:14:59.577Z,60.31
2019-05-21T22:17:27.390Z,60.51
2019-05-21T22:19:54.855Z,59.96
2019-05-21T22:22:22.943Z,59.73
2019-05-21T22:24:50.448Z,59.24
2019-05-21T22:27:17.988Z,59.45
2019-05-21T22:29:45.443Z,59.47
2019-05-21T22:32:16.566Z,58.92
2019-05-21T22:34:42.530Z,59.64
2019-05-21T22:37:12.420Z,59.22
2019-05-21T22:39:42.080Z,58.98
2019-05-21T22:42:10.466Z,58.91
2019-05-21T22:44:38.385Z,59.18
2019-05-21T22:47:07.050Z,59.38
2019-05-21T22:49:35.095Z,59.88
2019-05-21T22:52:02.740Z,60.25
2019-05-21T22:54:30.231Z,59.76
2019-05-21T22:56:57.898Z,60.56
2019-05-21T22:59:25.550Z,60.26
2019-05-21T23:01:55.821Z,60.55
2019-05-21T23:04:23.291Z,61.75
2019-05-21T23:06:50.850Z,60.62
2019-05-21T23:09:18.371Z,60.35
2019-05-21T23:11:45.846Z,60.94
2019-05-21T23:14:13.344Z,60.55
2019-05-21T23:16:41.315Z,61.52
2019-05-21T23:19:10.883Z,60.25
2019-05-21T23:21:39.193Z,60.14
2019-05-21T23:24:12.483Z,60.27
2019-05-21T23:26:40.332Z,60.12
2019-05-21T23:29:08.138Z,60.00
2019-05-21T23:31:35.654Z,62.09
2019-05-21T23:34:04.852Z,66.62
2019-05-21T23:36:32.489Z,68.99
2019-05-21T23:38:59.943Z,69.43
2019-05-21T23:41:28.180Z,70.13
2019-05-21T23:43:55.655Z,69.42
2019-05-21T23:46:23.323Z,69.68
2019-05-21T23:48:51.297Z,69.39
2019-05-21T23:51:18.831Z,69.00
2019-05-21T23:53:46.340Z,68.58
2019-05-21T23:56:14.998Z,67.79
2019-05-21T23:58:42.951Z,67.69
